createdAt,value
2022-09-10T00:02:07.750Z,4.07
2022-09-10T00:04:34.367Z,4.85
2022-09-10T00:07:01.719Z,6.88
2022-09-10T00:09:28.905Z,6.47
2022-09-10T00:11:56.842Z,8.43
2022-09-10T00:14:24.346Z,4.07
2022-09-10T00:16:52.084Z,12.27
2022-09-10T00:19:19.395Z,5.93
2022-09-10T00:21:46.781Z,8.18
2022-09-10T00:24:14.050Z,6.05
2022-09-10T00:26:41.425Z,4.32
2022-09-10T00:29:10.476Z,6.68
2022-09-10T00:31:38.545Z,7.80
2022-09-10T00:34:06.164Z,8.25
2022-09-10T00:36:37.023Z,5.78
2022-09-10T00:39:07.575Z,5.30
2022-09-10T00:41:37.762Z,9.18
2022-09-10T00:44:26.074Z,6.75
2022-09-10T00:46:55.686Z,9.20
2022-09-10T00:49:33.697Z,11.25
2022-09-10T00:52:01.878Z,8.55
2022-09-10T00:54:30.724Z,5.00
2022-09-10T00:57:02.808Z,8.75
2022-09-10T00:59:30.903Z,5.97
2022-09-10T01:01:59.946Z,7.32
2022-09-10T01:04:28.593Z,7.93
2022-09-10T01:06:56.371Z,8.32
2022-09-10T01:09:24.362Z,9.80
2022-09-10T01:12:04.594Z,10.88
2022-09-10T01:14:56.353Z,8.93
2022-09-10T01:17:47.450Z,13.82
2022-09-10T01:20:32.870Z,11.30
2022-09-10T01:23:41.545Z,8.20
2022-09-10T01:26:33.202Z,10.23
2022-09-10T01:29:18.000Z,9.48
2022-09-10T01:31:58.811Z,9.02
2022-09-10T01:34:43.726Z,11.50
2022-09-10T01:37:21.399Z,11.70
2022-09-10T01:39:49.660Z,12.55
2022-09-10T01:42:17.444Z,12.35
2022-09-10T01:44:48.443Z,10.15
2022-09-10T01:48:01.109Z,12.35
2022-09-10T01:50:35.274Z,10.98
2022-09-10T01:53:16.830Z,8.05
2022-09-10T01:56:41.414Z,13.25
2022-09-10T01:59:43.511Z,9.55
2022-09-10T02:03:00.363Z,10.15
2022-09-10T02:05:33.594Z,14.70
2022-09-10T02:08:24.091Z,7.80
2022-09-10T02:10:59.722Z,10.38
2022-09-10T02:13:31.200Z,9.20
2022-09-10T02:16:31.959Z,11.68
2022-09-10T02:19:01.116Z,15.20
2022-09-10T02:21:28.268Z,10.90
2022-09-10T02:23:59.629Z,19.42
2022-09-10T02:26:27.589Z,15.38
2022-09-10T02:28:55.028Z,8.50
2022-09-10T02:31:22.662Z,14.30
2022-09-10T02:33:51.394Z,13.95
2022-09-10T02:36:18.821Z,10.93
2022-09-10T02:38:46.145Z,12.25
2022-09-10T02:41:14.607Z,10.75
2022-09-10T02:43:42.503Z,14.43
2022-09-10T02:46:10.238Z,23.45
2022-09-10T02:48:38.916Z,18.20
2022-09-10T02:51:07.351Z,11.68
2022-09-10T02:53:36.465Z,16.85
2022-09-10T02:56:05.187Z,11.23
2022-09-10T02:58:32.914Z,9.23
2022-09-10T03:01:21.960Z,12.00
2022-09-10T03:03:58.189Z,19.75
2022-09-10T03:06:26.603Z,11.73
2022-09-10T03:08:57.469Z,11.73
2022-09-10T03:11:27.152Z,17.10
2022-09-10T03:13:54.712Z,18.40
2022-09-10T03:16:24.065Z,11.25
2022-09-10T03:18:52.073Z,14.65
2022-09-10T03:21:21.571Z,14.70
2022-09-10T03:23:50.528Z,16.92
2022-09-10T03:26:25.173Z,12.98
2022-09-10T03:28:53.518Z,15.65
2022-09-10T03:31:22.575Z,9.73
2022-09-10T03:33:50.965Z,13.50
2022-09-10T03:36:18.516Z,18.98
2022-09-10T03:38:47.821Z,14.68
2022-09-10T03:41:15.036Z,14.50
2022-09-10T03:43:41.723Z,14.82
2022-09-10T03:46:12.273Z,24.20
2022-09-10T03:48:43.490Z,26.23
2022-09-10T03:51:11.129Z,19.40
2022-09-10T03:53:38.798Z,9.95
2022-09-10T03:56:07.729Z,18.73
2022-09-10T03:58:35.655Z,16.40
2022-09-10T04:01:04.590Z,17.00
2022-09-10T04:03:34.521Z,17.15
2022-09-10T04:06:01.798Z,12.10
2022-09-10T04:08:28.462Z,20.23
2022-09-10T04:11:01.782Z,20.38
2022-09-10T04:15:56.282Z,22.20
2022-09-10T04:18:23.599Z,17.13
2022-09-10T04:20:50.899Z,17.85
2022-09-10T04:23:17.586Z,18.48
2022-09-10T04:25:46.726Z,24.15
2022-09-10T04:28:13.508Z,21.30
2022-09-10T04:30:40.755Z,28.42
2022-09-10T04:33:09.450Z,25.23
2022-09-10T04:35:36.448Z,27.13
2022-09-10T04:38:07.023Z,21.60
2022-09-10T04:40:37.213Z,28.77
2022-09-10T04:43:04.809Z,29.90
2022-09-10T04:45:35.364Z,20.67
2022-09-10T04:48:06.803Z,27.23
2022-09-10T04:50:35.796Z,21.00
2022-09-10T04:53:13.531Z,23.65
2022-09-10T04:55:43.339Z,23.42
2022-09-10T04:58:10.994Z,24.90
2022-09-10T05:00:39.538Z,24.83
2022-09-10T05:03:07.734Z,25.27
2022-09-10T05:05:36.710Z,28.20
2022-09-10T05:08:05.589Z,28.05
2022-09-10T05:10:33.240Z,17.80
2022-09-10T05:13:00.829Z,25.67
2022-09-10T05:15:28.489Z,21.27
2022-09-10T05:17:56.320Z,24.52
2022-09-10T05:20:23.391Z,23.60
2022-09-10T05:22:55.198Z,21.02
2022-09-10T05:25:24.303Z,21.20
2022-09-10T05:27:51.722Z,23.75
2022-09-10T05:30:21.202Z,27.08
2022-09-10T05:32:48.758Z,23.95
2022-09-10T05:35:16.065Z,26.25
2022-09-10T05:37:46.178Z,22.85
2022-09-10T05:40:14.792Z,28.08
2022-09-10T05:42:42.835Z,30.55
2022-09-10T05:45:10.371Z,25.17
2022-09-10T05:47:37.854Z,29.83
2022-09-10T05:50:06.922Z,23.30
2022-09-10T05:52:34.416Z,25.83
2022-09-10T05:55:05.757Z,27.38
2022-09-10T05:57:33.159Z,28.35
2022-09-10T06:00:01.220Z,30.65
2022-09-10T06:02:30.267Z,23.58
2022-09-10T06:05:00.464Z,28.00
2022-09-10T06:07:28.625Z,22.85
2022-09-10T06:09:57.448Z,27.85
2022-09-10T06:12:38.108Z,24.88
2022-09-10T06:15:07.083Z,27.27
2022-09-10T06:17:34.110Z,28.80
2022-09-10T06:20:02.413Z,24.05
2022-09-10T06:22:33.063Z,23.77
2022-09-10T06:25:00.008Z,23.77
2022-09-10T06:27:26.924Z,27.42
2022-09-10T06:29:56.266Z,26.20
2022-09-10T06:32:23.971Z,23.58
2022-09-10T06:34:51.120Z,26.90
2022-09-10T06:37:19.839Z,32.35
2022-09-10T06:39:46.763Z,28.27
2022-09-10T06:42:14.557Z,26.17
2022-09-10T06:44:55.418Z,24.30
2022-09-10T06:50:17.044Z,32.38
2022-09-10T06:52:45.483Z,31.42
2022-09-10T06:55:14.779Z,26.92
2022-09-10T06:57:44.359Z,28.20
2022-09-10T07:00:14.374Z,31.80
2022-09-10T07:02:43.861Z,28.55
2022-09-10T07:05:11.750Z,31.73
2022-09-10T07:07:40.750Z,37.30
2022-09-10T07:10:09.127Z,40.22
2022-09-10T07:12:36.138Z,32.20
2022-09-10T07:15:06.275Z,38.47
2022-09-10T07:17:35.879Z,38.55
2022-09-10T07:20:03.894Z,32.47
2022-09-10T07:22:42.842Z,25.63
2022-09-10T07:25:11.571Z,31.75
2022-09-10T07:27:53.749Z,27.15
2022-09-10T07:30:22.501Z,28.20
2022-09-10T07:32:50.810Z,36.72
2022-09-10T07:35:22.429Z,28.80
2022-09-10T07:37:50.074Z,27.17
2022-09-10T07:40:19.752Z,25.08
2022-09-10T07:42:46.386Z,33.85
2022-09-10T07:45:15.603Z,27.58
2022-09-10T07:47:44.866Z,20.92
2022-09-10T07:50:12.433Z,24.98
2022-09-10T07:52:40.395Z,29.27
2022-09-10T07:55:07.668Z,28.35
2022-09-10T07:57:38.008Z,32.60
2022-09-10T08:00:11.879Z,25.30
2022-09-10T08:02:42.843Z,35.85
2022-09-10T08:05:16.799Z,28.13
2022-09-10T08:07:44.933Z,25.08
2022-09-10T08:10:12.288Z,23.77
2022-09-10T08:12:40.996Z,29.05
2022-09-10T08:15:10.104Z,26.15
2022-09-10T08:17:39.961Z,27.60
2022-09-10T08:20:09.812Z,26.70
2022-09-10T08:22:38.638Z,24.42
2022-09-10T08:25:06.184Z,37.80
2022-09-10T08:27:34.237Z,29.52
2022-09-10T08:30:04.344Z,33.15
2022-09-10T08:32:31.574Z,26.80
2022-09-10T08:34:58.480Z,36.55
2022-09-10T08:37:27.435Z,27.88
2022-09-10T08:39:54.552Z,30.80
2022-09-10T08:42:35.155Z,34.53
2022-09-10T08:45:10.494Z,31.95
2022-09-10T08:47:53.485Z,36.40
2022-09-10T08:50:48.066Z,31.83
2022-09-10T08:53:28.674Z,32.75
2022-09-10T08:56:08.323Z,33.95
2022-09-10T08:58:47.797Z,31.98
2022-09-10T09:01:24.885Z,41.20
2022-09-10T09:03:55.426Z,35.92
2022-09-10T09:06:48.087Z,36.63
2022-09-10T09:09:16.090Z,37.35
2022-09-10T09:12:05.667Z,37.67
2022-09-10T09:14:47.308Z,36.05
2022-09-10T09:17:49.551Z,35.10
2022-09-10T09:20:25.632Z,34.55
2022-09-10T09:23:19.491Z,38.80
2022-09-10T09:25:48.063Z,36.63
2022-09-10T09:28:31.842Z,34.22
2022-09-10T09:33:30.373Z,29.67
2022-09-10T09:36:01.681Z,36.80
2022-09-10T09:38:37.407Z,31.17
2022-09-10T09:41:23.019Z,29.27
2022-09-10T09:44:02.326Z,29.63
2022-09-10T09:46:29.983Z,28.52
2022-09-10T09:49:02.210Z,25.55
2022-09-10T09:51:35.093Z,28.23
2022-09-10T09:57:02.786Z,29.20
2022-09-10T09:59:32.146Z,35.42
2022-09-10T10:02:05.581Z,28.92
2022-09-10T10:04:36.993Z,39.13
2022-09-10T10:07:06.302Z,36.92
2022-09-10T10:09:38.896Z,32.42
2022-09-10T10:12:07.095Z,33.10
2022-09-10T10:14:39.108Z,38.05
2022-09-10T10:17:39.596Z,37.65
2022-09-10T10:20:12.634Z,37.30
2022-09-10T10:25:41.463Z,44.47
2022-09-10T10:28:27.730Z,37.15
2022-09-10T10:30:57.661Z,41.05
2022-09-10T10:33:30.655Z,44.95
2022-09-10T10:36:11.370Z,39.63
2022-09-10T10:38:41.381Z,45.67
2022-09-10T10:41:43.959Z,41.25
2022-09-10T10:44:23.983Z,36.72
2022-09-10T10:46:59.855Z,36.67
2022-09-10T10:49:48.059Z,33.47
2022-09-10T10:52:35.102Z,32.88
2022-09-10T10:55:36.030Z,25.58
2022-09-10T10:58:28.886Z,26.67
2022-09-10T11:01:05.431Z,27.00
2022-09-10T11:03:42.679Z,33.63
2022-09-10T11:06:17.947Z,35.80
2022-09-10T11:09:05.824Z,41.42
2022-09-10T11:12:11.239Z,33.38
2022-09-10T11:15:00.837Z,32.65
2022-09-10T11:17:35.629Z,38.10
2022-09-10T11:20:28.432Z,33.70
2022-09-10T11:23:30.001Z,33.42
2022-09-10T11:26:13.020Z,32.92
2022-09-10T11:28:54.188Z,39.97
2022-09-10T11:31:35.696Z,37.25
2022-09-10T11:34:24.701Z,34.45
2022-09-10T11:37:12.245Z,36.20
2022-09-10T11:39:45.248Z,34.88
2022-09-10T11:42:19.468Z,31.92
2022-09-10T11:45:00.761Z,37.40
2022-09-10T11:47:42.626Z,35.95
2022-09-10T11:50:36.051Z,26.08
2022-09-10T11:53:07.191Z,24.85
2022-09-10T11:56:00.094Z,27.10
2022-09-10T11:58:44.818Z,25.58
2022-09-10T12:01:23.669Z,23.20
2022-09-10T12:04:28.314Z,21.65
2022-09-10T12:07:04.506Z,20.45
2022-09-10T12:10:00.761Z,24.05
2022-09-10T12:12:38.443Z,21.45
2022-09-10T12:15:15.625Z,24.80
2022-09-10T12:17:45.869Z,22.45
2022-09-10T12:20:29.865Z,21.10
2022-09-10T12:22:57.639Z,18.65
2022-09-10T12:25:33.213Z,22.10
2022-09-10T12:28:05.267Z,22.65
2022-09-10T12:30:34.989Z,23.90
2022-09-10T12:33:13.899Z,22.92
2022-09-10T12:35:49.133Z,27.27
2022-09-10T12:38:50.396Z,19.98
2022-09-10T12:41:23.100Z,20.60
2022-09-10T12:43:53.192Z,21.17
2022-09-10T12:46:22.524Z,26.58
2022-09-10T12:49:12.496Z,19.75
2022-09-10T12:51:56.559Z,22.85
2022-09-10T12:54:40.588Z,21.33
2022-09-10T12:57:29.822Z,25.80
2022-09-10T13:00:25.651Z,27.58
2022-09-10T13:02:59.886Z,20.50
2022-09-10T13:05:50.313Z,23.60
2022-09-10T13:08:53.621Z,23.92
2022-09-10T13:11:23.693Z,29.80
2022-09-10T13:14:01.621Z,24.65
2022-09-10T13:16:28.239Z,32.75
2022-09-10T13:19:13.728Z,32.00
2022-09-10T13:21:40.578Z,26.08
2022-09-10T13:24:38.603Z,27.75
2022-09-10T13:27:11.106Z,27.90
2022-09-10T13:29:40.930Z,26.30
2022-09-10T13:35:38.470Z,34.65
2022-09-10T13:38:32.966Z,27.83
2022-09-10T13:41:23.762Z,26.52
2022-09-10T13:44:03.473Z,23.27
2022-09-10T13:46:37.718Z,28.52
2022-09-10T13:49:29.049Z,35.65
2022-09-10T13:51:59.084Z,27.67
2022-09-10T13:54:51.432Z,27.23
2022-09-10T13:57:29.854Z,31.15
2022-09-10T14:00:07.423Z,30.88
2022-09-10T14:02:45.990Z,30.27
2022-09-10T14:05:23.102Z,31.92
2022-09-10T14:07:52.518Z,27.45
2022-09-10T14:10:19.541Z,26.98
2022-09-10T14:12:50.048Z,24.33
2022-09-10T14:15:21.959Z,24.35
2022-09-10T14:17:54.597Z,22.73
2022-09-10T14:20:33.691Z,26.40
2022-09-10T14:23:12.887Z,20.95
2022-09-10T14:25:42.545Z,21.60
2022-09-10T14:28:19.195Z,21.27
2022-09-10T14:30:49.046Z,18.98
2022-09-10T14:33:35.678Z,18.17
2022-09-10T14:36:17.291Z,21.95
2022-09-10T14:38:51.842Z,19.10
2022-09-10T14:41:22.097Z,20.83
2022-09-10T14:43:49.950Z,19.65
2022-09-10T14:46:46.042Z,20.95
2022-09-10T14:49:17.981Z,22.52
2022-09-10T14:51:45.157Z,23.75
2022-09-10T14:54:12.755Z,17.65
2022-09-10T14:56:45.987Z,22.85
2022-09-10T14:59:33.407Z,21.50
2022-09-10T15:02:01.920Z,9.18
2022-09-10T15:04:29.988Z,10.32
2022-09-10T15:06:59.296Z,8.63
2022-09-10T15:09:28.187Z,9.25
2022-09-10T15:12:02.022Z,4.35
2022-09-10T15:14:29.397Z,3.63
2022-09-10T15:16:56.611Z,3.47
2022-09-10T15:19:23.240Z,3.50
2022-09-10T15:21:50.828Z,2.95
2022-09-10T15:24:19.972Z,4.72
2022-09-10T15:26:47.674Z,4.93
2022-09-10T15:29:14.716Z,7.20
2022-09-10T15:31:43.677Z,5.10
2022-09-10T15:34:11.359Z,10.35
2022-09-10T15:36:40.161Z,7.45
2022-09-10T15:39:08.695Z,7.93
2022-09-10T15:41:35.371Z,8.23
2022-09-10T15:44:03.187Z,10.93
2022-09-10T15:46:29.860Z,10.68
2022-09-10T15:48:59.334Z,11.68
2022-09-10T15:51:26.818Z,12.02
2022-09-10T15:53:54.259Z,12.60
2022-09-10T15:56:24.796Z,14.98
2022-09-10T15:58:54.947Z,15.48
2022-09-10T16:01:24.135Z,17.75
2022-09-10T16:03:55.238Z,16.90
2022-09-10T16:06:23.897Z,22.85
2022-09-10T16:09:01.896Z,22.60
2022-09-10T16:11:33.455Z,19.40
2022-09-10T16:14:04.668Z,21.23
2022-09-10T16:16:32.591Z,22.33
2022-09-10T16:19:00.284Z,20.90
2022-09-10T16:21:29.588Z,21.83
2022-09-10T16:23:58.238Z,25.77
2022-09-10T16:26:28.207Z,24.20
2022-09-10T16:28:57.246Z,25.85
2022-09-10T16:31:32.931Z,26.30
2022-09-10T16:34:03.152Z,25.67
2022-09-10T16:36:32.375Z,23.20
2022-09-10T16:39:02.863Z,24.65
2022-09-10T16:41:29.860Z,25.38
2022-09-10T16:44:00.436Z,28.42
2022-09-10T16:46:27.815Z,26.80
2022-09-10T16:48:55.779Z,24.30
2022-09-10T16:51:24.407Z,26.77
2022-09-10T16:54:02.724Z,24.92
2022-09-10T16:56:38.182Z,29.88
2022-09-10T16:59:09.276Z,26.33
2022-09-10T17:01:37.115Z,25.20
2022-09-10T17:04:05.130Z,28.73
2022-09-10T17:06:31.823Z,25.60
2022-09-10T17:09:00.464Z,25.05
2022-09-10T17:11:32.822Z,26.77
2022-09-10T17:14:03.256Z,18.08
2022-09-10T17:16:39.697Z,24.27
2022-09-10T17:19:14.977Z,25.88
2022-09-10T17:21:44.446Z,25.08
2022-09-10T17:24:12.544Z,24.17
2022-09-10T17:26:40.407Z,26.90
2022-09-10T17:29:15.868Z,23.70
2022-09-10T17:31:43.678Z,27.52
2022-09-10T17:34:14.170Z,24.90
2022-09-10T17:36:45.479Z,26.90
2022-09-10T17:39:12.874Z,22.08
2022-09-10T17:41:40.091Z,26.83
2022-09-10T17:44:07.814Z,26.38
2022-09-10T17:46:35.994Z,23.02
2022-09-10T17:49:03.363Z,24.38
2022-09-10T17:51:32.322Z,29.23
2022-09-10T17:53:59.282Z,24.95
2022-09-10T17:56:26.665Z,29.55
2022-09-10T17:59:02.329Z,27.65
2022-09-10T18:01:31.781Z,27.60
2022-09-10T18:03:58.479Z,32.90
2022-09-10T18:06:28.829Z,29.98
2022-09-10T18:08:58.765Z,32.47
2022-09-10T18:11:28.087Z,32.35
2022-09-10T18:13:56.061Z,31.77
2022-09-10T18:16:26.605Z,34.13
2022-09-10T18:18:58.136Z,29.40
2022-09-10T18:21:36.314Z,35.55
2022-09-10T18:24:10.007Z,36.20
2022-09-10T18:26:39.330Z,31.98
2022-09-10T18:29:29.695Z,34.95
2022-09-10T18:32:00.500Z,38.13
2022-09-10T18:34:29.434Z,41.45
2022-09-10T18:36:58.714Z,45.75
2022-09-10T18:39:27.794Z,45.55
2022-09-10T18:41:55.243Z,46.85
2022-09-10T18:44:25.016Z,43.85
2022-09-10T18:46:55.908Z,40.05
2022-09-10T18:49:26.588Z,37.63
2022-09-10T18:51:54.832Z,36.03
2022-09-10T18:54:23.069Z,39.22
2022-09-10T18:56:50.785Z,41.05
2022-09-10T18:59:20.040Z,39.42
2022-09-10T19:01:48.292Z,41.88
2022-09-10T19:04:18.079Z,35.88
2022-09-10T19:06:46.785Z,38.95
2022-09-10T19:09:16.451Z,37.42
2022-09-10T19:11:45.189Z,47.05
2022-09-10T19:14:19.083Z,52.90
2022-09-10T19:16:47.348Z,49.00
2022-09-10T19:19:18.320Z,44.92
2022-09-10T19:21:53.524Z,42.08
2022-09-10T19:24:32.781Z,36.17
2022-09-10T19:27:07.323Z,34.83
2022-09-10T19:29:34.040Z,37.13
2022-09-10T19:32:00.709Z,34.72
2022-09-10T19:34:27.835Z,29.15
2022-09-10T19:36:55.576Z,36.30
2022-09-10T19:39:22.335Z,32.20
2022-09-10T19:41:50.023Z,27.08
2022-09-10T19:44:18.056Z,39.08
2022-09-10T19:46:45.163Z,31.80
2022-09-10T19:49:12.552Z,34.33
2022-09-10T19:51:40.571Z,36.47
2022-09-10T19:54:07.712Z,31.27
2022-09-10T19:56:37.380Z,33.30
2022-09-10T19:59:08.432Z,31.27
2022-09-10T20:01:40.659Z,32.03
2022-09-10T20:04:09.711Z,33.75
2022-09-10T20:06:37.200Z,34.80
2022-09-10T20:09:06.015Z,34.90
2022-09-10T20:11:35.360Z,34.47
2022-09-10T20:14:13.593Z,35.67
2022-09-10T20:16:43.157Z,35.25
2022-09-10T20:19:12.970Z,37.38
2022-09-10T20:21:39.936Z,38.85
2022-09-10T20:24:07.923Z,37.38
2022-09-10T20:26:38.013Z,37.80
2022-09-10T20:29:07.549Z,41.88
2022-09-10T20:31:35.779Z,38.72
2022-09-10T20:34:07.399Z,36.80
2022-09-10T20:36:35.513Z,49.88
2022-09-10T20:39:02.658Z,41.85
2022-09-10T20:41:30.063Z,39.95
2022-09-10T20:43:58.605Z,45.60
2022-09-10T20:46:26.642Z,52.10
2022-09-10T20:48:53.474Z,44.17
2022-09-10T20:51:20.856Z,46.55
2022-09-10T20:53:48.034Z,52.88
2022-09-10T20:56:18.091Z,50.97
2022-09-10T20:58:45.664Z,52.53
2022-09-10T21:01:20.644Z,54.67
2022-09-10T21:03:48.950Z,49.20
2022-09-10T21:06:20.877Z,50.45
2022-09-10T21:08:48.665Z,56.95
2022-09-10T21:11:20.442Z,55.35
2022-09-10T21:13:53.159Z,56.28
2022-09-10T21:16:26.882Z,51.15
2022-09-10T21:18:56.128Z,53.40
2022-09-10T21:21:27.947Z,48.50
2022-09-10T21:23:56.905Z,51.60
2022-09-10T21:26:29.481Z,53.35
2022-09-10T21:28:58.844Z,56.40
2022-09-10T21:31:27.111Z,49.85
2022-09-10T21:34:02.802Z,52.28
2022-09-10T21:36:31.581Z,51.75
2022-09-10T21:39:00.189Z,43.60
2022-09-10T21:41:33.363Z,51.03
2022-09-10T21:44:02.856Z,51.55
2022-09-10T21:46:29.846Z,52.38
2022-09-10T21:48:56.801Z,53.50
2022-09-10T21:51:23.988Z,46.85
2022-09-10T21:53:55.587Z,50.85
2022-09-10T21:56:23.792Z,53.83
2022-09-10T21:58:50.481Z,48.17
2022-09-10T22:01:22.405Z,51.80
2022-09-10T22:03:49.638Z,52.97
2022-09-10T22:06:18.972Z,46.78
2022-09-10T22:09:00.533Z,50.40
2022-09-10T22:11:36.630Z,52.78
2022-09-10T22:14:06.894Z,52.95
2022-09-10T22:16:35.062Z,52.78
2022-09-10T22:19:06.116Z,54.78
2022-09-10T22:21:33.809Z,51.92
2022-09-10T22:24:00.482Z,54.67
2022-09-10T22:26:31.278Z,52.38
2022-09-10T22:28:59.519Z,51.65
2022-09-10T22:31:29.377Z,57.50
2022-09-10T22:33:58.851Z,57.33
2022-09-10T22:36:31.050Z,56.60
2022-09-10T22:39:03.515Z,57.75
2022-09-10T22:41:32.362Z,58.92
2022-09-10T22:43:59.391Z,54.53
2022-09-10T22:46:26.838Z,59.10
2022-09-10T22:48:54.110Z,59.70
2022-09-10T22:51:23.608Z,55.35
2022-09-10T22:53:51.878Z,56.00
2022-09-10T22:56:24.967Z,54.22
2022-09-10T22:58:52.705Z,58.55
2022-09-10T23:01:23.702Z,61.35
2022-09-10T23:03:51.895Z,50.75
2022-09-10T23:06:21.976Z,51.75
2022-09-10T23:08:51.364Z,54.67
2022-09-10T23:11:29.743Z,49.67
2022-09-10T23:13:58.792Z,54.17
2022-09-10T23:16:28.700Z,52.40
2022-09-10T23:18:57.436Z,51.55
2022-09-10T23:21:25.880Z,58.55
2022-09-10T23:23:58.348Z,55.88
2022-09-10T23:26:25.877Z,55.60
2022-09-10T23:28:55.089Z,56.92
2022-09-10T23:31:24.809Z,57.42
2022-09-10T23:34:00.921Z,55.80
2022-09-10T23:36:31.161Z,64.03
2022-09-10T23:38:58.817Z,53.85
2022-09-10T23:41:26.543Z,59.60
2022-09-10T23:43:53.996Z,61.65
2022-09-10T23:46:21.722Z,55.83
2022-09-10T23:48:49.191Z,65.30
2022-09-10T23:51:19.492Z,62.00
2022-09-10T23:53:46.945Z,58.88
2022-09-10T23:56:16.996Z,62.97
2022-09-10T23:58:43.865Z,65.00
